sensor_id;sensor_type;location;lat;lon;timestamp;pressure;altitude;pressure_sealevel;temperature;humidity
70314;BME280;71040;47.526;18.986;2024-03-02T00:04:03;99177.91;;;11.30;94.41
70314;BME280;71040;47.526;18.986;2024-03-02T00:09:04;99184.94;;;11.30;94.45
70314;BME280;71040;47.526;18.986;2024-03-02T00:14:10;99174.47;;;11.30;94.35
70314;BME280;71040;47.526;18.986;2024-03-02T00:19:11;99172.78;;;11.29;94.35
70314;BME280;71040;47.526;18.986;2024-03-02T00:24:21;99154.53;;;11.27;94.54
70314;BME280;71040;47.526;18.986;2024-03-02T00:29:21;99159.69;;;11.29;94.34
70314;BME280;71040;47.526;18.986;2024-03-02T00:34:22;99157.16;;;11.27;94.35
70314;BME280;71040;47.526;18.986;2024-03-02T00:39:22;99151.91;;;11.27;94.27
70314;BME280;71040;47.526;18.986;2024-03-02T00:44:28;99158.06;;;11.26;94.39
70314;BME280;71040;47.526;18.986;2024-03-02T00:49:35;99165.09;;;11.25;94.26
70314;BME280;71040;47.526;18.986;2024-03-02T00:54:38;99165.94;;;11.26;94.22
70314;BME280;71040;47.526;18.986;2024-03-02T00:59:41;99168.63;;;11.24;94.61
70314;BME280;71040;47.526;18.986;2024-03-02T01:04:41;99172.09;;;11.25;94.27
70314;BME280;71040;47.526;18.986;2024-03-02T01:09:41;99170.41;;;11.24;94.28
70314;BME280;71040;47.526;18.986;2024-03-02T01:14:42;99162.72;;;11.21;94.46
70314;BME280;71040;47.526;18.986;2024-03-02T01:19:42;99157.41;;;11.22;94.40
70314;BME280;71040;47.526;18.986;2024-03-02T01:24:45;99144.31;;;11.22;94.53
70314;BME280;71040;47.526;18.986;2024-03-02T01:29:48;99146.09;;;11.22;94.43
70314;BME280;71040;47.526;18.986;2024-03-02T01:34:49;99134.03;;;11.19;94.40
70314;BME280;71040;47.526;18.986;2024-03-02T01:39:51;99118.25;;;11.21;94.41
70314;BME280;71040;47.526;18.986;2024-03-02T01:44:54;99121.91;;;11.18;94.27
70314;BME280;71040;47.526;18.986;2024-03-02T01:49:54;99101.91;;;11.17;94.47
70314;BME280;71040;47.526;18.986;2024-03-02T01:54:57;99111.44;;;11.18;94.43
70314;BME280;71040;47.526;18.986;2024-03-02T02:00:05;99117.59;;;11.17;94.18
70314;BME280;71040;47.526;18.986;2024-03-02T02:05:17;99117.50;;;11.19;94.32
70314;BME280;71040;47.526;18.986;2024-03-02T02:10:24;99126.38;;;11.16;94.51
70314;BME280;71040;47.526;18.986;2024-03-02T02:15:29;99138.53;;;11.17;94.16
70314;BME280;71040;47.526;18.986;2024-03-02T02:20:29;99144.69;;;11.16;94.25
70314;BME280;71040;47.526;18.986;2024-03-02T02:25:30;99143.00;;;11.15;94.24
70314;BME280;71040;47.526;18.986;2024-03-02T02:30:33;99143.06;;;11.14;94.32
70314;BME280;71040;47.526;18.986;2024-03-02T02:35:36;99150.00;;;11.15;94.41
70314;BME280;71040;47.526;18.986;2024-03-02T02:40:39;99154.38;;;11.14;94.25
70314;BME280;71040;47.526;18.986;2024-03-02T02:45:44;99145.78;;;11.12;94.49
70314;BME280;71040;47.526;18.986;2024-03-02T02:50:47;99140.47;;;11.14;94.29
70314;BME280;71040;47.526;18.986;2024-03-02T02:55:48;99140.53;;;11.12;94.27
70314;BME280;71040;47.526;18.986;2024-03-02T03:00:48;99129.31;;;11.10;94.36
70314;BME280;71040;47.526;18.986;2024-03-02T03:05:51;99134.47;;;11.12;94.38
70314;BME280;71040;47.526;18.986;2024-03-02T03:10:54;99138.09;;;11.09;94.35
70314;BME280;71040;47.526;18.986;2024-03-02T03:16:00;99152.00;;;11.10;94.68
70314;BME280;71040;47.526;18.986;2024-03-02T03:21:01;99154.63;;;11.10;94.32
70314;BME280;71040;47.526;18.986;2024-03-02T03:26:03;99150.25;;;11.10;94.42
70314;BME280;71040;47.526;18.986;2024-03-02T03:31:04;99147.72;;;11.09;94.55
70314;BME280;71040;47.526;18.986;2024-03-02T03:36:05;99145.09;;;11.09;94.50
70314;BME280;71040;47.526;18.986;2024-03-02T03:41:07;99150.31;;;11.09;94.31
70314;BME280;71040;47.526;18.986;2024-03-02T03:46:08;99153.06;;;11.07;94.19
70314;BME280;71040;47.526;18.986;2024-03-02T03:51:08;99158.28;;;11.07;94.55
70314;BME280;71040;47.526;18.986;2024-03-02T03:56:08;99153.13;;;11.06;94.30
70314;BME280;71040;47.526;18.986;2024-03-02T04:01:11;99162.66;;;11.07;94.77
70314;BME280;71040;47.526;18.986;2024-03-02T04:06:11;99168.84;;;11.06;94.27
70314;BME280;71040;47.526;18.986;2024-03-02T04:11:12;99174.06;;;11.06;94.76
70314;BME280;71040;47.526;18.986;2024-03-02T04:16:14;99178.44;;;11.05;94.80
70314;BME280;71040;47.526;18.986;2024-03-02T04:21:15;99180.22;;;11.05;94.37
70314;BME280;71040;47.526;18.986;2024-03-02T04:26:17;99185.44;;;11.05;94.46
70314;BME280;71040;47.526;18.986;2024-03-02T04:31:22;99188.16;;;11.03;94.41
70314;BME280;71040;47.526;18.986;2024-03-02T04:36:24;99187.22;;;11.04;94.47
70314;BME280;71040;47.526;18.986;2024-03-02T04:41:27;99189.00;;;11.04;94.43
70314;BME280;71040;47.526;18.986;2024-03-02T04:46:30;99195.06;;;11.04;94.20
70314;BME280;71040;47.526;18.986;2024-03-02T04:51:31;99196.00;;;11.03;94.29
70314;BME280;71040;47.526;18.986;2024-03-02T04:56:32;99191.69;;;11.02;94.44
70314;BME280;71040;47.526;18.986;2024-03-02T05:01:32;99190.00;;;11.01;94.27
70314;BME280;71040;47.526;18.986;2024-03-02T05:06:33;99196.91;;;11.02;94.54
70314;BME280;71040;47.526;18.986;2024-03-02T05:11:34;99194.38;;;11.01;94.15
70314;BME280;71040;47.526;18.986;2024-03-02T05:16:40;99197.84;;;11.01;94.31
70314;BME280;71040;47.526;18.986;2024-03-02T05:21:46;99198.78;;;11.00;94.63
70314;BME280;71040;47.526;18.986;2024-03-02T05:26:46;99200.53;;;11.00;94.56
70314;BME280;71040;47.526;18.986;2024-03-02T05:31:47;99199.69;;;10.99;94.78
70314;BME280;71040;47.526;18.986;2024-03-02T05:36:48;99206.69;;;10.99;94.34
70314;BME280;71040;47.526;18.986;2024-03-02T05:41:53;99204.06;;;10.99;94.40
70314;BME280;71040;47.526;18.986;2024-03-02T05:46:53;99192.78;;;10.98;94.36
70314;BME280;71040;47.526;18.986;2024-03-02T05:51:54;99196.31;;;10.97;94.72
70314;BME280;71040;47.526;18.986;2024-03-02T05:56:54;99202.59;;;10.95;94.60
70314;BME280;71040;47.526;18.986;2024-03-02T06:01:57;99202.75;;;10.92;94.34
70314;BME280;71040;47.526;18.986;2024-03-02T06:06:57;99225.28;;;10.94;94.48
70314;BME280;71040;47.526;18.986;2024-03-02T06:11:58;99230.50;;;10.94;94.41
70314;BME280;71040;47.526;18.986;2024-03-02T06:17:00;99233.97;;;10.95;94.33
70314;BME280;71040;47.526;18.986;2024-03-02T06:22:04;99237.44;;;10.95;94.67
70314;BME280;71040;47.526;18.986;2024-03-02T06:27:06;99233.13;;;10.94;94.47
70314;BME280;71040;47.526;18.986;2024-03-02T06:32:07;99245.34;;;10.94;94.75
70314;BME280;71040;47.526;18.986;2024-03-02T06:37:10;99241.88;;;10.93;94.52
70314;BME280;71040;47.526;18.986;2024-03-02T06:42:10;99242.81;;;10.92;94.33
70314;BME280;71040;47.526;18.986;2024-03-02T06:47:10;99241.03;;;10.93;94.80
70314;BME280;71040;47.526;18.986;2024-03-02T06:52:11;99239.34;;;10.92;94.37
70314;BME280;71040;47.526;18.986;2024-03-02T06:57:16;99247.19;;;10.92;94.69
70314;BME280;71040;47.526;18.986;2024-03-02T07:02:23;99246.34;;;10.91;94.65
70314;BME280;71040;47.526;18.986;2024-03-02T07:07:24;99252.50;;;10.90;94.50
70314;BME280;71040;47.526;18.986;2024-03-02T07:12:26;99254.28;;;10.89;94.43
70314;BME280;71040;47.526;18.986;2024-03-02T07:17:30;99251.66;;;10.89;94.43
70314;BME280;71040;47.526;18.986;2024-03-02T07:22:33;99251.66;;;10.89;94.84
70314;BME280;71040;47.526;18.986;2024-03-02T07:27:34;99251.75;;;10.88;94.88
70314;BME280;71040;47.526;18.986;2024-03-02T07:32:35;99263.97;;;10.87;94.77
70314;BME280;71040;47.526;18.986;2024-03-02T07:37:35;99256.13;;;10.87;94.90
70314;BME280;71040;47.526;18.986;2024-03-02T07:42:36;99253.59;;;10.86;94.61
70314;BME280;71040;47.526;18.986;2024-03-02T07:47:37;99264.81;;;10.88;94.54
70314;BME280;71040;47.526;18.986;2024-03-02T07:52:37;99267.50;;;10.86;94.50
70314;BME280;71040;47.526;18.986;2024-03-02T07:57:45;99265.81;;;10.85;94.84
70314;BME280;71040;47.526;18.986;2024-03-02T08:02:45;99276.28;;;10.85;94.92
70314;BME280;71040;47.526;18.986;2024-03-02T08:07:50;99276.28;;;10.85;94.85
70314;BME280;71040;47.526;18.986;2024-03-02T08:12:56;99278.03;;;10.85;94.92
70314;BME280;71040;47.526;18.986;2024-03-02T08:18:01;99284.13;;;10.85;94.74
70314;BME280;71040;47.526;18.986;2024-03-02T08:23:01;99272.16;;;10.81;94.84
70314;BME280;71040;47.526;18.986;2024-03-02T08:28:04;99277.31;;;10.83;94.67
70314;BME280;71040;47.526;18.986;2024-03-02T08:33:07;99279.00;;;10.84;94.65
70314;BME280;71040;47.526;18.986;2024-03-02T08:38:08;99277.31;;;10.83;94.73
70314;BME280;71040;47.526;18.986;2024-03-02T08:43:11;99274.84;;;10.80;95.02
70314;BME280;71040;47.526;18.986;2024-03-02T08:48:11;99275.63;;;10.82;94.70
70314;BME280;71040;47.526;18.986;2024-03-02T08:53:14;99283.47;;;10.82;94.82
70314;BME280;71040;47.526;18.986;2024-03-02T08:58:18;99284.31;;;10.82;94.73
70314;BME280;71040;47.526;18.986;2024-03-02T09:03:24;99284.31;;;10.82;95.00
70314;BME280;71040;47.526;18.986;2024-03-02T09:08:24;99280.00;;;10.81;95.00
70314;BME280;71040;47.526;18.986;2024-03-02T09:13:24;99283.63;;;10.79;94.80
70314;BME280;71040;47.526;18.986;2024-03-02T09:18:25;99287.06;;;10.79;94.98
70314;BME280;71040;47.526;18.986;2024-03-02T09:23:28;99290.47;;;10.81;95.03
70314;BME280;71040;47.526;18.986;2024-03-02T09:28:28;99292.22;;;10.81;94.92
70314;BME280;71040;47.526;18.986;2024-03-02T09:33:31;99288.75;;;10.80;95.09
70314;BME280;71040;47.526;18.986;2024-03-02T09:38:34;99296.63;;;10.80;95.05
70314;BME280;71040;47.526;18.986;2024-03-02T09:43:36;99291.38;;;10.80;95.12
70314;BME280;71040;47.526;18.986;2024-03-02T09:48:38;99287.16;;;10.78;94.82
70314;BME280;71040;47.526;18.986;2024-03-02T09:53:39;99288.75;;;10.80;94.95
70314;BME280;71040;47.526;18.986;2024-03-02T09:58:39;99284.47;;;10.79;95.18
70314;BME280;71040;47.526;18.986;2024-03-02T10:03:42;99286.22;;;10.79;95.06
70314;BME280;71040;47.526;18.986;2024-03-02T10:08:44;99289.69;;;10.79;95.10
70314;BME280;71040;47.526;18.986;2024-03-02T10:13:48;99289.69;;;10.79;94.80
70314;BME280;71040;47.526;18.986;2024-03-02T10:18:54;99283.63;;;10.79;94.96
70314;BME280;71040;47.526;18.986;2024-03-02T10:24:07;99280.22;;;10.77;94.84
70314;BME280;71040;47.526;18.986;2024-03-02T10:29:11;99289.69;;;10.79;94.88
70314;BME280;71040;47.526;18.986;2024-03-02T10:34:16;99286.22;;;10.79;95.09
70314;BME280;71040;47.526;18.986;2024-03-02T10:39:19;99282.78;;;10.78;95.06
70314;BME280;71040;47.526;18.986;2024-03-02T10:44:19;99279.38;;;10.76;95.24
70314;BME280;71040;47.526;18.986;2024-03-02T10:49:23;99276.00;;;10.74;95.37
70314;BME280;71040;47.526;18.986;2024-03-02T10:54:27;99267.41;;;10.72;94.89
70314;BME280;71040;47.526;18.986;2024-03-02T10:59:48;99276.78;;;10.76;95.27
70314;BME280;71040;47.526;18.986;2024-03-02T11:04:54;99278.47;;;10.77;95.24
70314;BME280;71040;47.526;18.986;2024-03-02T11:09:59;99274.16;;;10.76;95.36
70314;BME280;71040;47.526;18.986;2024-03-02T11:15:00;99268.09;;;10.76;95.11
70314;BME280;71040;47.526;18.986;2024-03-02T11:20:04;99268.09;;;10.76;95.25
70314;BME280;71040;47.526;18.986;2024-03-02T11:25:05;99253.41;;;10.73;95.23
70314;BME280;71040;47.526;18.986;2024-03-02T11:35:34;99255.00;;;10.76;95.16
70314;BME280;71040;47.526;18.986;2024-03-02T11:40:35;99255.94;;;10.75;95.24
70314;BME280;71040;47.526;18.986;2024-03-02T11:45:36;99252.41;;;10.76;95.39
70314;BME280;71040;47.526;18.986;2024-03-02T11:50:47;99243.72;;;10.75;95.23
70314;BME280;71040;47.526;18.986;2024-03-02T11:55:51;99244.53;;;10.76;95.25
70314;BME280;71040;47.526;18.986;2024-03-02T12:00:53;99244.63;;;10.74;95.16
70314;BME280;71040;47.526;18.986;2024-03-02T12:05:55;99250.63;;;10.76;95.34
70314;BME280;71040;47.526;18.986;2024-03-02T12:11:00;99248.09;;;10.75;95.46
70314;BME280;71040;47.526;18.986;2024-03-02T12:16:04;99248.09;;;10.75;95.05
70314;BME280;71040;47.526;18.986;2024-03-02T12:21:07;99244.63;;;10.74;95.21
70314;BME280;71040;47.526;18.986;2024-03-02T12:26:11;99248.94;;;10.75;95.05
70314;BME280;71040;47.526;18.986;2024-03-02T12:31:16;99245.47;;;10.75;95.37
70314;BME280;71040;47.526;18.986;2024-03-02T12:36:16;99250.69;;;10.75;95.49
70314;BME280;71040;47.526;18.986;2024-03-02T12:41:18;99255.94;;;10.75;95.31
70314;BME280;71040;47.526;18.986;2024-03-02T12:46:30;99249.13;;;10.72;95.32
70314;BME280;71040;47.526;18.986;2024-03-02T12:51:37;99255.09;;;10.74;95.25
70314;BME280;71040;47.526;18.986;2024-03-02T12:56:41;99256.78;;;10.75;95.22
70314;BME280;71040;47.526;18.986;2024-03-02T13:01:52;99252.47;;;10.74;95.21
70314;BME280;71040;47.526;18.986;2024-03-02T13:06:53;99245.47;;;10.75;95.14
70314;BME280;71040;47.526;18.986;2024-03-02T13:11:56;99243.78;;;10.74;95.51
70314;BME280;71040;47.526;18.986;2024-03-02T13:16:57;99240.44;;;10.72;95.32
70314;BME280;71040;47.526;18.986;2024-03-02T13:22:02;99247.25;;;10.74;95.52
70314;BME280;71040;47.526;18.986;2024-03-02T13:27:06;99242.94;;;10.73;95.23
70314;BME280;71040;47.526;18.986;2024-03-02T13:32:06;99248.09;;;10.75;95.50
70314;BME280;71040;47.526;18.986;2024-03-02T13:37:07;99245.56;;;10.73;95.44
70314;BME280;71040;47.526;18.986;2024-03-02T13:42:09;99252.47;;;10.74;95.29
70314;BME280;71040;47.526;18.986;2024-03-02T13:47:10;99255.94;;;10.75;95.09
70314;BME280;71040;47.526;18.986;2024-03-02T13:52:10;99260.44;;;10.73;95.22
70314;BME280;71040;47.526;18.986;2024-03-02T13:57:12;99256.13;;;10.72;95.58
70314;BME280;71040;47.526;18.986;2024-03-02T14:02:13;99256.97;;;10.72;95.63
70314;BME280;71040;47.526;18.986;2024-03-02T14:07:15;99267.31;;;10.74;95.56
70314;BME280;71040;47.526;18.986;2024-03-02T14:12:17;99266.38;;;10.75;95.54
70314;BME280;71040;47.526;18.986;2024-03-02T14:17:18;99265.53;;;10.74;95.16
70314;BME280;71040;47.526;18.986;2024-03-02T14:22:21;99278.63;;;10.74;95.33
70314;BME280;71040;47.526;18.986;2024-03-02T14:27:22;99272.66;;;10.72;95.34
70314;BME280;71040;47.526;18.986;2024-03-02T14:32:22;99269.94;;;10.74;95.85
70314;BME280;71040;47.526;18.986;2024-03-02T14:37:22;99274.31;;;10.73;95.54
70314;BME280;71040;47.526;18.986;2024-03-02T14:42:23;99273.50;;;10.73;95.57
70314;BME280;71040;47.526;18.986;2024-03-02T14:47:23;99276.91;;;10.73;95.38
70314;BME280;71040;47.526;18.986;2024-03-02T14:52:25;99271.69;;;10.73;95.64
70314;BME280;71040;47.526;18.986;2024-03-02T14:57:25;99275.25;;;10.72;95.47
70314;BME280;71040;47.526;18.986;2024-03-02T15:02:28;99271.69;;;10.73;95.46
70314;BME280;71040;47.526;18.986;2024-03-02T15:07:34;99269.09;;;10.73;95.42
70314;BME280;71040;47.526;18.986;2024-03-02T15:12:37;99267.31;;;10.74;95.33
70314;BME280;71040;47.526;18.986;2024-03-02T15:17:37;99271.69;;;10.73;95.57
70314;BME280;71040;47.526;18.986;2024-03-02T15:22:40;99269.94;;;10.74;95.35
70314;BME280;71040;47.526;18.986;2024-03-02T15:27:41;99272.66;;;10.72;95.65
70314;BME280;71040;47.526;18.986;2024-03-02T15:32:42;99267.50;;;10.71;95.44
70314;BME280;71040;47.526;18.986;2024-03-02T15:37:42;99274.31;;;10.73;95.58
70314;BME280;71040;47.526;18.986;2024-03-02T15:42:45;99276.09;;;10.73;95.34
70314;BME280;71040;47.526;18.986;2024-03-02T15:47:46;99265.66;;;10.73;95.38
70314;BME280;71040;47.526;18.986;2024-03-02T15:52:46;99271.81;;;10.72;95.36
70314;BME280;71040;47.526;18.986;2024-03-02T15:57:47;99270.13;;;10.71;95.24
70314;BME280;71040;47.526;18.986;2024-03-02T16:02:50;99275.25;;;10.72;95.45
70314;BME280;71040;47.526;18.986;2024-03-02T16:07:53;99275.34;;;10.71;95.65
70314;BME280;71040;47.526;18.986;2024-03-02T16:12:53;99274.41;;;10.72;95.65
70314;BME280;71040;47.526;18.986;2024-03-02T16:17:55;99274.50;;;10.70;95.13
70314;BME280;71040;47.526;18.986;2024-03-02T16:23:01;99283.19;;;10.71;95.60
70314;BME280;71040;47.526;18.986;2024-03-02T16:28:06;99287.50;;;10.72;95.33
70314;BME280;71040;47.526;18.986;2024-03-02T16:33:07;99287.56;;;10.70;95.32
70314;BME280;71040;47.526;18.986;2024-03-02T16:38:07;99284.03;;;10.71;95.29
70314;BME280;71040;47.526;18.986;2024-03-02T16:43:10;99284.94;;;10.70;95.58
70314;BME280;71040;47.526;18.986;2024-03-02T16:48:13;99284.94;;;10.70;95.25
70314;BME280;71040;47.526;18.986;2024-03-02T16:53:22;99284.94;;;10.70;95.68
70314;BME280;71040;47.526;18.986;2024-03-02T16:58:25;99283.25;;;10.69;95.69
70314;BME280;71040;47.526;18.986;2024-03-02T17:03:30;99284.94;;;10.70;95.48
70314;BME280;71040;47.526;18.986;2024-03-02T17:08:30;99289.34;;;10.70;95.40
70314;BME280;71040;47.526;18.986;2024-03-02T17:13:35;99294.56;;;10.70;95.45
70314;BME280;71040;47.526;18.986;2024-03-02T17:18:41;99298.03;;;10.70;95.35
70314;BME280;71040;47.526;18.986;2024-03-02T17:23:41;99309.41;;;10.69;95.74
70314;BME280;71040;47.526;18.986;2024-03-02T17:28:44;99295.56;;;10.67;95.60
70314;BME280;71040;47.526;18.986;2024-03-02T17:33:45;99305.94;;;10.69;95.76
70314;BME280;71040;47.526;18.986;2024-03-02T17:38:48;99311.16;;;10.69;95.52
70314;BME280;71040;47.526;18.986;2024-03-02T17:43:50;99311.16;;;10.69;95.78
70314;BME280;71040;47.526;18.986;2024-03-02T17:48:53;99305.09;;;10.68;95.72
70314;BME280;71040;47.526;18.986;2024-03-02T17:53:56;99311.16;;;10.69;95.65
70314;BME280;71040;47.526;18.986;2024-03-02T17:58:59;99316.47;;;10.67;95.32
70314;BME280;71040;47.526;18.986;2024-03-02T18:04:01;99318.16;;;10.68;95.42
70314;BME280;71040;47.526;18.986;2024-03-02T18:09:02;99311.25;;;10.67;95.62
70314;BME280;71040;47.526;18.986;2024-03-02T18:14:05;99311.25;;;10.67;95.73
70314;BME280;71040;47.526;18.986;2024-03-02T18:19:05;99313.94;;;10.66;95.29
70314;BME280;71040;47.526;18.986;2024-03-02T18:24:06;99322.53;;;10.68;95.60
70314;BME280;71040;47.526;18.986;2024-03-02T18:29:06;99312.25;;;10.65;95.50
70314;BME280;71040;47.526;18.986;2024-03-02T18:34:08;99307.84;;;10.65;95.82
70314;BME280;71040;47.526;18.986;2024-03-02T18:39:09;99327.84;;;10.66;95.38
70314;BME280;71040;47.526;18.986;2024-03-02T18:44:09;99315.63;;;10.67;95.40
70314;BME280;71040;47.526;18.986;2024-03-02T18:49:12;99313.84;;;10.67;95.66
70314;BME280;71040;47.526;18.986;2024-03-02T18:54:12;99320.00;;;10.66;95.71
70314;BME280;71040;47.526;18.986;2024-03-02T18:59:15;99319.16;;;10.66;95.30
70314;BME280;71040;47.526;18.986;2024-03-02T19:04:20;99332.22;;;10.66;95.80
70314;BME280;71040;47.526;18.986;2024-03-02T19:09:23;99331.31;;;10.67;95.47
70314;BME280;71040;47.526;18.986;2024-03-02T19:14:23;99334.00;;;10.65;95.56
70314;BME280;71040;47.526;18.986;2024-03-02T19:19:26;99340.06;;;10.66;95.74
70314;BME280;71040;47.526;18.986;2024-03-02T19:24:26;99340.22;;;10.63;95.69
70314;BME280;71040;47.526;18.986;2024-03-02T19:29:27;99334.91;;;10.64;95.48
70314;BME280;71040;47.526;18.986;2024-03-02T19:34:31;99341.84;;;10.65;95.45
70314;BME280;71040;47.526;18.986;2024-03-02T19:39:31;99344.59;;;10.62;95.36
70314;BME280;71040;47.526;18.986;2024-03-02T19:44:33;99345.44;;;10.63;95.60
70314;BME280;71040;47.526;18.986;2024-03-02T19:49:33;99352.38;;;10.64;95.52
70314;BME280;71040;47.526;18.986;2024-03-02T19:54:33;99357.53;;;10.65;95.59
70314;BME280;71040;47.526;18.986;2024-03-02T19:59:37;99358.44;;;10.64;95.45
70314;BME280;71040;47.526;18.986;2024-03-02T20:04:38;99354.16;;;10.63;95.62
70314;BME280;71040;47.526;18.986;2024-03-02T20:09:39;99355.84;;;10.64;95.76
70314;BME280;71040;47.526;18.986;2024-03-02T20:14:40;99361.06;;;10.64;95.75
70314;BME280;71040;47.526;18.986;2024-03-02T20:19:43;99366.28;;;10.64;95.60
70314;BME280;71040;47.526;18.986;2024-03-02T20:24:48;99353.28;;;10.63;95.60
70314;BME280;71040;47.526;18.986;2024-03-02T20:29:51;99351.53;;;10.63;95.90
70314;BME280;71040;47.526;18.986;2024-03-02T20:34:53;99351.59;;;10.62;95.75
70314;BME280;71040;47.526;18.986;2024-03-02T20:39:54;99359.38;;;10.63;95.59
70314;BME280;71040;47.526;18.986;2024-03-02T20:44:58;99355.06;;;10.62;95.83
70314;BME280;71040;47.526;18.986;2024-03-02T20:50:01;99363.75;;;10.63;95.52
70314;BME280;71040;47.526;18.986;2024-03-02T20:55:07;99351.53;;;10.63;95.92
70314;BME280;71040;47.526;18.986;2024-03-02T21:00:10;99351.59;;;10.62;95.46
70314;BME280;71040;47.526;18.986;2024-03-02T21:05:11;99355.06;;;10.62;95.81
70314;BME280;71040;47.526;18.986;2024-03-02T21:10:14;99354.22;;;10.62;95.51
70314;BME280;71040;47.526;18.986;2024-03-02T21:15:16;99354.16;;;10.63;95.59
70314;BME280;71040;47.526;18.986;2024-03-02T21:20:19;99349.94;;;10.61;95.76
70314;BME280;71040;47.526;18.986;2024-03-02T21:25:19;99353.41;;;10.61;95.84
70314;BME280;71040;47.526;18.986;2024-03-02T21:30:23;99355.25;;;10.59;95.92
70314;BME280;71040;47.526;18.986;2024-03-02T21:35:25;99346.47;;;10.60;95.56
70314;BME280;71040;47.526;18.986;2024-03-02T21:40:27;99340.34;;;10.61;95.77
70314;BME280;71040;47.526;18.986;2024-03-02T21:45:27;99351.72;;;10.60;95.64
70314;BME280;71040;47.526;18.986;2024-03-02T21:50:30;99351.72;;;10.60;95.63
70314;BME280;71040;47.526;18.986;2024-03-02T21:55:33;99343.03;;;10.60;95.82
70314;BME280;71040;47.526;18.986;2024-03-02T22:00:36;99349.09;;;10.60;95.83
70314;BME280;71040;47.526;18.986;2024-03-02T22:05:43;99349.09;;;10.60;95.85
70314;BME280;71040;47.526;18.986;2024-03-02T22:10:43;99346.47;;;10.60;95.83
70314;BME280;71040;47.526;18.986;2024-03-02T22:15:44;99332.56;;;10.60;95.78
70314;BME280;71040;47.526;18.986;2024-03-02T22:20:48;99349.09;;;10.60;95.82
70314;BME280;71040;47.526;18.986;2024-03-02T22:25:58;99347.41;;;10.59;95.86
70314;BME280;71040;47.526;18.986;2024-03-02T22:31:01;99345.63;;;10.60;95.99
70314;BME280;71040;47.526;18.986;2024-03-02T22:36:06;99343.88;;;10.60;95.74
70314;BME280;71040;47.526;18.986;2024-03-02T22:41:10;99337.03;;;10.58;95.49
70314;BME280;71040;47.526;18.986;2024-03-02T22:46:16;99344.78;;;10.59;96.08
70314;BME280;71040;47.526;18.986;2024-03-02T22:51:26;99343.16;;;10.57;95.63
70314;BME280;71040;47.526;18.986;2024-03-02T22:56:26;99340.47;;;10.58;95.79
70314;BME280;71040;47.526;18.986;2024-03-02T23:01:29;99343.09;;;10.58;95.72
70314;BME280;71040;47.526;18.986;2024-03-02T23:06:29;99340.47;;;10.58;95.68
70314;BME280;71040;47.526;18.986;2024-03-02T23:11:30;99344.00;;;10.57;95.92
70314;BME280;71040;47.526;18.986;2024-03-02T23:16:30;99340.47;;;10.58;95.86
70314;BME280;71040;47.526;18.986;2024-03-02T23:21:34;99346.56;;;10.59;95.73
70314;BME280;71040;47.526;18.986;2024-03-02T23:26:36;99342.25;;;10.58;95.98
70314;BME280;71040;47.526;18.986;2024-03-02T23:31:39;99342.41;;;10.55;95.81
70314;BME280;71040;47.526;18.986;2024-03-02T23:36:39;99345.72;;;10.58;95.54
70314;BME280;71040;47.526;18.986;2024-03-02T23:41:40;99339.63;;;10.58;95.93
70314;BME280;71040;47.526;18.986;2024-03-02T23:46:45;99348.31;;;10.58;95.81
70314;BME280;71040;47.526;18.986;2024-03-02T23:51:45;99337.03;;;10.58;95.89
70314;BME280;71040;47.526;18.986;2024-03-02T23:56:45;99347.47;;;10.58;95.66
